Time;durP1;ratioP1;P1;durP2;ratioP2;P2;SDS_P1;SDS_P2;PMS_P1;PMS_P2;Temp;Humidity;BMP_temperature;BMP_pressure;BME280_temperature;BME280_humidity;BME280_pressure;Samples;Min_cycle;Max_cycle;Signal;HPM_P1;HPM_P2
2022/05/10 00:00:38;;;;;;;15.23;13.70;;;;;;;;;;5051275;28;20456;-74
2022/05/10 00:03:07;;;;;;;14.77;13.50;;;;;;;;;;5051095;28;20484;-76
2022/05/10 00:05:36;;;;;;;15.70;14.43;;;;;;;;;;5050955;28;20469;-75
2022/05/10 00:08:05;;;;;;;15.13;13.93;;;;;;;;;;5051243;28;20476;-75
2022/05/10 00:10:32;;;;;;;14.80;13.70;;;;;;;;;;5050968;28;20449;-74
2022/05/10 00:12:59;;;;;;;14.20;13.10;;;;;;;;;;5050652;28;20465;-76
2022/05/10 00:15:27;;;;;;;14.97;13.77;;;;;;;;;;5051422;28;20441;-75
2022/05/10 00:17:55;;;;;;;14.97;13.77;;;;;;;;;;5050888;28;21038;-75
2022/05/10 00:20:23;;;;;;;15.57;14.37;;;;;;;;;;5050919;28;20437;-75
2022/05/10 00:22:50;;;;;;;16.07;14.80;;;;;;;;;;5050629;28;21009;-75
2022/05/10 00:25:18;;;;;;;14.30;13.20;;;;;;;;;;5050521;28;20794;-74
2022/05/10 00:27:45;;;;;;;15.67;14.47;;;;;;;;;;5051078;28;20573;-73
2022/05/10 00:30:13;;;;;;;15.00;13.80;;;;;;;;;;5050966;28;20442;-75
2022/05/10 00:32:42;;;;;;;15.00;13.90;;;;;;;;;;5050978;28;20457;-75
2022/05/10 00:35:15;;;;;;;14.77;13.57;;;;;;;;;;5051479;28;20433;-75
2022/05/10 00:37:42;;;;;;;15.77;14.30;;;;;;;;;;5050664;28;20481;-74
2022/05/10 00:40:10;;;;;;;14.67;13.40;;;;;;;;;;5050974;28;20448;-75
2022/05/10 00:42:39;;;;;;;15.57;14.20;;;;;;;;;;5050451;28;20477;-76
2022/05/10 00:45:08;;;;;;;14.97;13.87;;;;;;;;;;5050655;28;20937;-75
2022/05/10 00:47:39;;;;;;;16.07;14.87;;;;;;;;;;5050695;28;20473;-74
2022/05/10 00:50:10;;;;;;;14.33;13.23;;;;;;;;;;5050541;28;20446;-75
2022/05/10 00:52:42;;;;;;;14.20;13.20;;;;;;;;;;5050549;28;20430;-74
2022/05/10 00:55:12;;;;;;;15.63;14.43;;;;;;;;;;5050943;28;20430;-75
2022/05/10 00:57:41;;;;;;;16.20;15.03;;;;;;;;;;5050883;28;20557;-75
2022/05/10 01:00:10;;;;;;;15.80;14.50;;;;;;;;;;5050876;28;20449;-74
2022/05/10 01:02:41;;;;;;;14.87;13.77;;;;;;;;;;5050396;28;20527;-75
2022/05/10 01:05:14;;;;;;;16.57;15.13;;;;;;;;;;5051182;28;20793;-76
2022/05/10 01:07:49;;;;;;;16.17;14.77;;;;;;;;;;5050820;28;20476;-74
2022/05/10 01:10:19;;;;;;;15.63;14.33;;;;;;;;;;5050551;28;20984;-76
2022/05/10 01:12:49;;;;;;;16.00;14.80;;;;;;;;;;5050112;28;20437;-74
2022/05/10 01:15:18;;;;;;;16.37;14.83;;;;;;;;;;5050548;28;20441;-75
2022/05/10 01:17:46;;;;;;;15.63;14.43;;;;;;;;;;5050204;28;20688;-75
2022/05/10 01:20:16;;;;;;;15.90;14.60;;;;;;;;;;5050540;28;20442;-75
2022/05/10 01:22:53;;;;;;;16.20;14.90;;;;;;;;;;5049982;28;20883;-75
2022/05/10 01:25:27;;;;;;;16.23;15.13;;;;;;;;;;5050019;28;20449;-75
2022/05/10 01:28:08;;;;;;;15.53;14.33;;;;;;;;;;5050183;28;20476;-75
2022/05/10 01:30:35;;;;;;;16.20;14.90;;;;;;;;;;5050262;28;20452;-75
2022/05/10 01:35:56;;;;;;;17.00;15.53;;;;;;;;;;5050799;28;20409;-76
2022/05/10 01:38:29;;;;;;;18.27;16.70;;;;;;;;;;5053887;28;20469;-76
2022/05/10 01:40:59;;;;;;;16.50;15.17;;;;;;;;;;5053956;28;20437;-75
2022/05/10 01:43:31;;;;;;;16.13;14.93;;;;;;;;;;5053659;28;20477;-74
2022/05/10 01:46:00;;;;;;;17.63;16.07;;;;;;;;;;5053933;28;20432;-77
2022/05/10 01:48:28;;;;;;;15.90;14.57;;;;;;;;;;5053576;28;20461;-74
2022/05/10 01:50:56;;;;;;;17.90;16.50;;;;;;;;;;5053554;28;20788;-74
2022/05/10 01:53:27;;;;;;;18.90;17.30;;;;;;;;;;5053485;28;20939;-75
2022/05/10 01:55:55;;;;;;;17.17;15.73;;;;;;;;;;5053957;28;20818;-75
2022/05/10 01:58:25;;;;;;;20.03;18.10;;;;;;;;;;5053590;28;20469;-75
2022/05/10 02:00:55;;;;;;;18.77;17.27;;;;;;;;;;5053546;28;20812;-75
2022/05/10 02:03:24;;;;;;;17.87;16.27;;;;;;;;;;5053173;28;20531;-74
2022/05/10 02:05:53;;;;;;;18.70;17.10;;;;;;;;;;5053218;28;20445;-75
2022/05/10 02:08:26;;;;;;;18.20;16.60;;;;;;;;;;5053357;28;20814;-75
2022/05/10 02:10:55;;;;;;;17.60;16.20;;;;;;;;;;5053407;28;20533;-75
2022/05/10 02:13:26;;;;;;;18.70;17.13;;;;;;;;;;5053084;28;20582;-74
2022/05/10 02:15:55;;;;;;;18.00;16.57;;;;;;;;;;5053070;28;20524;-76
2022/05/10 02:18:24;;;;;;;18.87;17.37;;;;;;;;;;5053261;28;20477;-73
2022/05/10 02:20:53;;;;;;;18.60;17.20;;;;;;;;;;5053080;28;20441;-74
2022/05/10 02:23:22;;;;;;;18.37;16.77;;;;;;;;;;5052911;28;20478;-75
2022/05/10 02:25:52;;;;;;;19.20;17.60;;;;;;;;;;5052982;28;20450;-74
2022/05/10 02:28:23;;;;;;;18.70;17.00;;;;;;;;;;5052748;28;20883;-76
2022/05/10 02:30:52;;;;;;;19.67;18.07;;;;;;;;;;5052923;28;20920;-76
2022/05/10 02:33:20;;;;;;;20.37;18.83;;;;;;;;;;5052550;28;20482;-75
2022/05/10 02:35:49;;;;;;;19.43;17.90;;;;;;;;;;5052668;28;20446;-75
2022/05/10 02:38:17;;;;;;;18.97;17.47;;;;;;;;;;5053149;28;20462;-75
2022/05/10 02:40:45;;;;;;;18.80;17.30;;;;;;;;;;5052556;28;20448;-76
2022/05/10 02:43:13;;;;;;;19.67;17.97;;;;;;;;;;5052448;28;20466;-75
2022/05/10 02:45:40;;;;;;;19.80;18.17;;;;;;;;;;5052614;28;20449;-75
2022/05/10 02:48:13;;;;;;;19.77;17.93;;;;;;;;;;5051846;28;20473;-76
2022/05/10 02:50:42;;;;;;;19.53;17.67;;;;;;;;;;5052555;28;20925;-74
2022/05/10 02:53:09;;;;;;;19.83;18.23;;;;;;;;;;5052504;28;20434;-73
2022/05/10 02:55:38;;;;;;;17.93;16.37;;;;;;;;;;5052797;28;20448;-74
2022/05/10 02:58:08;;;;;;;19.17;17.57;;;;;;;;;;5052385;28;20473;-73
2022/05/10 03:00:36;;;;;;;19.43;17.83;;;;;;;;;;5052756;28;20448;-73
2022/05/10 03:03:07;;;;;;;19.00;17.50;;;;;;;;;;5051966;28;20453;-75
2022/05/10 03:05:35;;;;;;;19.60;18.00;;;;;;;;;;5049899;28;20947;-74
2022/05/10 03:08:04;;;;;;;20.47;18.57;;;;;;;;;;5031871;28;20512;-75
2022/05/10 03:10:32;;;;;;;19.70;18.20;;;;;;;;;;5049809;28;20476;-73
2022/05/10 03:12:59;;;;;;;20.23;18.63;;;;;;;;;;5051716;28;20445;-75
2022/05/10 03:15:26;;;;;;;19.53;17.93;;;;;;;;;;5052272;28;20442;-74
2022/05/10 03:17:53;;;;;;;19.47;17.93;;;;;;;;;;5052145;28;20540;-74
2022/05/10 03:20:20;;;;;;;20.73;19.13;;;;;;;;;;5052306;28;20475;-74
2022/05/10 03:22:47;;;;;;;19.87;18.23;;;;;;;;;;5051592;28;20994;-75
2022/05/10 03:25:16;;;;;;;19.60;18.00;;;;;;;;;;5052002;28;20486;-74
2022/05/10 03:27:43;;;;;;;21.30;19.30;;;;;;;;;;5051837;28;21027;-74
2022/05/10 03:30:11;;;;;;;19.53;17.93;;;;;;;;;;5051786;28;20968;-74
2022/05/10 03:32:38;;;;;;;20.10;18.40;;;;;;;;;;5051514;28;20941;-74
2022/05/10 03:35:05;;;;;;;19.93;18.33;;;;;;;;;;5051657;28;20446;-75
2022/05/10 03:37:34;;;;;;;20.20;18.50;;;;;;;;;;5051638;28;20469;-75
2022/05/10 03:40:01;;;;;;;22.20;20.40;;;;;;;;;;5051784;28;20446;-74
2022/05/10 03:42:29;;;;;;;22.30;20.10;;;;;;;;;;5051568;28;20917;-74
2022/05/10 03:44:56;;;;;;;22.10;20.17;;;;;;;;;;5051870;28;20476;-74
2022/05/10 03:47:24;;;;;;;22.03;20.23;;;;;;;;;;5051389;28;20488;-75
2022/05/10 03:49:51;;;;;;;22.50;20.60;;;;;;;;;;5051576;28;20473;-74
2022/05/10 03:52:18;;;;;;;21.87;20.20;;;;;;;;;;5051305;28;20441;-74
2022/05/10 03:54:46;;;;;;;21.40;19.60;;;;;;;;;;5051324;28;20442;-74
2022/05/10 03:57:13;;;;;;;19.70;18.10;;;;;;;;;;5051463;28;20476;-75
2022/05/10 03:59:42;;;;;;;20.90;19.00;;;;;;;;;;5050487;28;20441;-74
2022/05/10 04:02:10;;;;;;;20.80;18.90;;;;;;;;;;5051004;28;20453;-74
2022/05/10 04:04:38;;;;;;;20.80;19.00;;;;;;;;;;5050905;28;20481;-73
2022/05/10 04:07:05;;;;;;;23.47;21.43;;;;;;;;;;5050972;28;20466;-74
2022/05/10 04:09:32;;;;;;;23.37;21.07;;;;;;;;;;5051467;28;20503;-74
2022/05/10 04:11:59;;;;;;;23.50;21.30;;;;;;;;;;5051094;28;20453;-76
2022/05/10 04:14:26;;;;;;;22.57;20.53;;;;;;;;;;5049846;28;20526;-73
2022/05/10 04:16:55;;;;;;;23.30;21.00;;;;;;;;;;5050268;28;20465;-75
2022/05/10 04:19:22;;;;;;;22.90;20.80;;;;;;;;;;5049655;28;20932;-75
2022/05/10 04:21:49;;;;;;;22.37;20.47;;;;;;;;;;5050104;28;20442;-74
2022/05/10 04:24:17;;;;;;;23.17;21.20;;;;;;;;;;5052743;28;20887;-77
2022/05/10 04:26:44;;;;;;;21.83;20.03;;;;;;;;;;5063150;28;20993;-73
2022/05/10 04:29:11;;;;;;;23.50;21.43;;;;;;;;;;5060002;28;20445;-74
2022/05/10 04:31:38;;;;;;;23.70;21.30;;;;;;;;;;5052379;28;20449;-74
2022/05/10 04:34:06;;;;;;;21.80;20.10;;;;;;;;;;5051870;28;21036;-73
2022/05/10 04:36:34;;;;;;;24.27;22.27;;;;;;;;;;5051619;28;20823;-73
2022/05/10 04:39:01;;;;;;;23.67;21.67;;;;;;;;;;5044495;28;20522;-75
2022/05/10 04:41:28;;;;;;;23.30;21.33;;;;;;;;;;5058763;28;20770;-74
2022/05/10 04:43:57;;;;;;;23.20;21.27;;;;;;;;;;5056933;28;20913;-74
2022/05/10 04:46:24;;;;;;;23.63;21.47;;;;;;;;;;5049707;28;21020;-74
2022/05/10 04:48:52;;;;;;;23.87;21.53;;;;;;;;;;5049574;28;20452;-75
2022/05/10 04:51:20;;;;;;;23.73;21.50;;;;;;;;;;5049869;28;20456;-75
2022/05/10 04:53:47;;;;;;;25.60;23.43;;;;;;;;;;5049820;28;20445;-74
2022/05/10 04:56:15;;;;;;;24.43;22.23;;;;;;;;;;5050010;28;20448;-75
2022/05/10 04:58:43;;;;;;;23.60;21.70;;;;;;;;;;5050328;28;20465;-74
2022/05/10 05:01:10;;;;;;;25.27;22.97;;;;;;;;;;5050090;28;20445;-75
2022/05/10 05:03:37;;;;;;;23.80;21.60;;;;;;;;;;5049315;28;20453;-75
2022/05/10 05:06:05;;;;;;;24.23;22.13;;;;;;;;;;5049697;28;20449;-76
2022/05/10 05:08:33;;;;;;;24.60;22.23;;;;;;;;;;5049992;28;20464;-75
2022/05/10 05:11:01;;;;;;;22.80;20.90;;;;;;;;;;5051931;28;20440;-74
2022/05/10 05:13:28;;;;;;;26.53;23.80;;;;;;;;;;5053201;28;20836;-75
2022/05/10 05:15:55;;;;;;;24.30;22.20;;;;;;;;;;5053447;28;20959;-74
2022/05/10 05:18:22;;;;;;;24.53;22.47;;;;;;;;;;5053484;28;20460;-74
2022/05/10 05:20:50;;;;;;;24.00;22.07;;;;;;;;;;5053015;28;20522;-75
2022/05/10 05:23:18;;;;;;;23.70;21.57;;;;;;;;;;5052867;28;20445;-75
2022/05/10 05:25:47;;;;;;;23.87;21.77;;;;;;;;;;5052921;28;20492;-76
2022/05/10 05:28:15;;;;;;;21.50;19.60;;;;;;;;;;5053350;28;20477;-77
2022/05/10 05:30:42;;;;;;;22.97;20.93;;;;;;;;;;5053072;28;20544;-75
2022/05/10 05:33:10;;;;;;;23.10;21.23;;;;;;;;;;5052800;28;20458;-75
2022/05/10 05:35:37;;;;;;;21.10;19.30;;;;;;;;;;5052929;28;20465;-75
2022/05/10 05:38:04;;;;;;;22.57;20.77;;;;;;;;;;5053156;28;20464;-75
2022/05/10 05:40:31;;;;;;;22.40;20.43;;;;;;;;;;5053781;28;20453;-74
2022/05/10 05:42:59;;;;;;;23.80;21.60;;;;;;;;;;5054312;28;20449;-74
2022/05/10 05:45:26;;;;;;;22.40;20.10;;;;;;;;;;5052959;28;20507;-76
2022/05/10 05:47:54;;;;;;;22.13;20.03;;;;;;;;;;5052673;28;20457;-75
2022/05/10 05:50:23;;;;;;;23.43;21.40;;;;;;;;;;5052951;28;20441;-76
2022/05/10 05:52:50;;;;;;;22.30;20.30;;;;;;;;;;5052451;28;20770;-75
2022/05/10 05:55:18;;;;;;;21.00;19.20;;;;;;;;;;5052421;28;20445;-76
2022/05/10 05:57:46;;;;;;;19.93;18.43;;;;;;;;;;5052235;28;20466;-76
2022/05/10 06:00:16;;;;;;;19.30;17.70;;;;;;;;;;5052237;28;20827;-76
2022/05/10 06:02:43;;;;;;;20.93;19.03;;;;;;;;;;5052104;28;20445;-75
2022/05/10 06:05:10;;;;;;;21.37;19.47;;;;;;;;;;5051931;28;20484;-75
2022/05/10 06:07:37;;;;;;;22.10;20.30;;;;;;;;;;5052588;28;20544;-75
2022/05/10 06:10:05;;;;;;;21.17;19.20;;;;;;;;;;5051892;28;20865;-75
2022/05/10 06:12:32;;;;;;;19.50;18.00;;;;;;;;;;5052049;28;20457;-76
2022/05/10 06:15:00;;;;;;;19.70;17.87;;;;;;;;;;5052056;28;20440;-77
2022/05/10 06:17:28;;;;;;;20.20;18.47;;;;;;;;;;5052025;28;20474;-77
2022/05/10 06:19:55;;;;;;;20.47;18.77;;;;;;;;;;5051724;28;20874;-75
2022/05/10 06:22:22;;;;;;;21.17;18.97;;;;;;;;;;5051609;28;20457;-75
2022/05/10 06:24:49;;;;;;;19.03;17.53;;;;;;;;;;5058547;28;20509;-75
2022/05/10 06:27:18;;;;;;;21.37;19.20;;;;;;;;;;5054981;28;20511;-75
2022/05/10 06:29:45;;;;;;;19.30;17.50;;;;;;;;;;5058637;28;20922;-73
2022/05/10 06:32:13;;;;;;;21.70;19.67;;;;;;;;;;5057786;28;20450;-74
2022/05/10 06:34:42;;;;;;;20.10;18.47;;;;;;;;;;5061681;28;20514;-74
2022/05/10 06:39:56;;;;;;;20.73;18.20;;;;;;;;;;5058338;28;20453;-76
2022/05/10 06:42:23;;;;;;;20.43;18.60;;;;;;;;;;5052033;28;20441;-76
2022/05/10 06:44:50;;;;;;;19.60;17.77;;;;;;;;;;5051695;28;20524;-76
2022/05/10 06:47:17;;;;;;;19.53;17.90;;;;;;;;;;5051542;28;20461;-75
2022/05/10 06:49:46;;;;;;;19.37;17.67;;;;;;;;;;5051660;28;20446;-75
2022/05/10 06:52:17;;;;;;;20.33;18.27;;;;;;;;;;5051926;28;21122;-76
2022/05/10 06:54:44;;;;;;;18.30;16.90;;;;;;;;;;5045137;28;20846;-76
2022/05/10 06:57:11;;;;;;;19.57;17.53;;;;;;;;;;5064258;28;20456;-75
2022/05/10 06:59:38;;;;;;;20.03;18.40;;;;;;;;;;5071227;28;20460;-76
2022/05/10 07:02:05;;;;;;;19.60;17.70;;;;;;;;;;5071282;28;20885;-75
2022/05/10 07:04:32;;;;;;;20.37;18.33;;;;;;;;;;5071168;28;20600;-74
2022/05/10 07:07:00;;;;;;;19.17;17.50;;;;;;;;;;5063821;28;20552;-75
2022/05/10 07:09:27;;;;;;;22.10;18.07;;;;;;;;;;5054248;28;21003;-75
2022/05/10 07:11:54;;;;;;;20.27;18.33;;;;;;;;;;5053094;28;20446;-75
2022/05/10 07:14:21;;;;;;;20.50;18.50;;;;;;;;;;5051026;28;20491;-75
2022/05/10 07:16:48;;;;;;;21.67;18.17;;;;;;;;;;5051098;28;20511;-75
2022/05/10 07:19:16;;;;;;;19.37;17.57;;;;;;;;;;5050748;28;20441;-74
2022/05/10 07:21:43;;;;;;;20.43;18.43;;;;;;;;;;5051125;28;20516;-74
2022/05/10 07:24:11;;;;;;;18.47;16.80;;;;;;;;;;5050100;28;20445;-75
2022/05/10 07:26:40;;;;;;;18.20;16.70;;;;;;;;;;5059848;28;20615;-75
2022/05/10 07:29:07;;;;;;;18.17;16.47;;;;;;;;;;5053255;28;20457;-76
2022/05/10 07:31:34;;;;;;;17.10;15.43;;;;;;;;;;5042956;28;20824;-76
2022/05/10 07:34:01;;;;;;;17.77;16.17;;;;;;;;;;5068288;28;20453;-76
2022/05/10 07:36:33;;;;;;;17.97;16.47;;;;;;;;;;5051000;28;20556;-75
2022/05/10 07:39:01;;;;;;;23.77;16.50;;;;;;;;;;5070743;28;20445;-76
2022/05/10 07:41:29;;;;;;;17.67;16.17;;;;;;;;;;5070655;28;20523;-75
2022/05/10 07:43:57;;;;;;;16.67;15.30;;;;;;;;;;5070705;28;20448;-75
2022/05/10 07:46:24;;;;;;;16.13;14.80;;;;;;;;;;5068098;28;20554;-75
2022/05/10 07:48:51;;;;;;;17.20;15.67;;;;;;;;;;5059475;28;20445;-76
2022/05/10 07:51:18;;;;;;;16.13;14.70;;;;;;;;;;5050781;28;20460;-76
2022/05/10 07:53:46;;;;;;;17.50;15.70;;;;;;;;;;5047659;28;20445;-75
2022/05/10 07:56:13;;;;;;;17.33;15.57;;;;;;;;;;5051855;28;20853;-75
2022/05/10 07:58:41;;;;;;;15.83;14.23;;;;;;;;;;5060625;28;20457;-75
2022/05/10 08:01:08;;;;;;;15.10;13.80;;;;;;;;;;5056234;28;20524;-75
2022/05/10 08:03:36;;;;;;;17.13;15.73;;;;;;;;;;5050009;28;20437;-76
2022/05/10 08:06:03;;;;;;;16.43;15.03;;;;;;;;;;5049845;28;20902;-77
2022/05/10 08:08:33;;;;;;;14.97;13.80;;;;;;;;;;5030372;28;20470;-74
2022/05/10 08:11:00;;;;;;;14.47;13.03;;;;;;;;;;5030490;28;20446;-76
2022/05/10 08:13:28;;;;;;;14.90;13.70;;;;;;;;;;5030475;28;20452;-76
2022/05/10 08:15:57;;;;;;;13.53;12.47;;;;;;;;;;5030463;28;20496;-75
2022/05/10 08:18:25;;;;;;;13.80;12.60;;;;;;;;;;5030307;28;20506;-75
2022/05/10 08:20:52;;;;;;;18.73;12.73;;;;;;;;;;5030126;28;20600;-76
2022/05/10 08:23:21;;;;;;;12.80;11.80;;;;;;;;;;5029825;28;20447;-75
2022/05/10 08:25:48;;;;;;;12.37;11.27;;;;;;;;;;5030202;28;20485;-76
2022/05/10 08:28:15;;;;;;;12.33;11.37;;;;;;;;;;5029766;28;20993;-75
2022/05/10 08:30:44;;;;;;;12.97;11.77;;;;;;;;;;5029995;28;20439;-74
2022/05/10 08:33:13;;;;;;;11.30;10.37;;;;;;;;;;5029756;28;20466;-75
2022/05/10 08:35:40;;;;;;;11.27;10.17;;;;;;;;;;5029626;28;20922;-75
2022/05/10 08:38:07;;;;;;;10.07;9.27;;;;;;;;;;5029363;28;20446;-75
2022/05/10 08:40:36;;;;;;;12.90;11.57;;;;;;;;;;5030384;28;20791;-75
2022/05/10 08:43:06;;;;;;;10.40;9.60;;;;;;;;;;5031300;28;20438;-73
2022/05/10 08:45:34;;;;;;;9.70;8.80;;;;;;;;;;5033094;28;20509;-76
2022/05/10 08:48:01;;;;;;;9.73;9.10;;;;;;;;;;5035227;28;20462;-74
2022/05/10 08:50:30;;;;;;;9.43;8.70;;;;;;;;;;5035630;28;20442;-75
2022/05/10 08:52:57;;;;;;;8.40;7.80;;;;;;;;;;5033991;28;20442;-76
2022/05/10 08:55:29;;;;;;;9.13;8.43;;;;;;;;;;5034010;28;20439;-75
2022/05/10 08:58:01;;;;;;;8.53;7.90;;;;;;;;;;5033841;28;20466;-75
2022/05/10 09:00:30;;;;;;;8.87;7.97;;;;;;;;;;5034074;28;20568;-75
2022/05/10 09:02:58;;;;;;;8.10;7.60;;;;;;;;;;5033713;28;21000;-76
2022/05/10 09:05:27;;;;;;;8.63;8.00;;;;;;;;;;5033957;28;21176;-75
2022/05/10 09:07:58;;;;;;;7.80;7.20;;;;;;;;;;5033729;28;20508;-77
2022/05/10 09:10:28;;;;;;;8.33;7.53;;;;;;;;;;5033459;28;20434;-76
2022/05/10 09:12:58;;;;;;;8.60;7.70;;;;;;;;;;5061451;28;20452;-76
2022/05/10 09:15:25;;;;;;;7.73;7.23;;;;;;;;;;5041531;28;20450;-75
2022/05/10 09:17:52;;;;;;;8.30;7.50;;;;;;;;;;5055972;28;20534;-75
2022/05/10 09:20:20;;;;;;;6.83;6.43;;;;;;;;;;5069321;28;20778;-76
2022/05/10 09:22:54;;;;;;;8.03;7.53;;;;;;;;;;5072852;28;20447;-77
2022/05/10 09:25:29;;;;;;;7.63;6.50;;;;;;;;;;5073120;28;20632;-75
2022/05/10 09:27:56;;;;;;;7.30;6.70;;;;;;;;;;5067796;28;20519;-76
2022/05/10 09:30:26;;;;;;;7.97;7.33;;;;;;;;;;5044760;28;20458;-75
2022/05/10 09:35:50;;;;;;;6.60;6.20;;;;;;;;;;5048172;28;20424;-75
2022/05/10 09:38:18;;;;;;;6.77;6.37;;;;;;;;;;5059992;28;20460;-74
2022/05/10 09:40:48;;;;;;;6.03;5.60;;;;;;;;;;5053785;28;20441;-76
2022/05/10 09:43:21;;;;;;;6.40;6.00;;;;;;;;;;5053121;28;20438;-76
2022/05/10 09:46:04;;;;;;;6.37;5.97;;;;;;;;;;5052864;28;20929;-76
2022/05/10 09:48:31;;;;;;;7.03;6.53;;;;;;;;;;5052850;28;20541;-75
2022/05/10 09:50:58;;;;;;;5.20;4.90;;;;;;;;;;5055861;28;20445;-76
2022/05/10 09:53:26;;;;;;;6.53;6.03;;;;;;;;;;5053792;28;20441;-75
2022/05/10 09:56:00;;;;;;;6.60;6.10;;;;;;;;;;5052444;28;20441;-75
2022/05/10 09:58:28;;;;;;;5.90;5.60;;;;;;;;;;5052056;28;20453;-76
2022/05/10 10:00:56;;;;;;;6.37;5.87;;;;;;;;;;5052877;28;20529;-74
2022/05/10 10:03:25;;;;;;;15.63;14.50;;;;;;;;;;5053902;28;21165;-73
2022/05/10 10:05:52;;;;;;;6.80;6.20;;;;;;;;;;5056279;28;20470;-75
2022/05/10 10:08:19;;;;;;;7.03;6.63;;;;;;;;;;5054387;28;20461;-75
2022/05/10 10:10:46;;;;;;;12.67;10.80;;;;;;;;;;5053456;28;20997;-76
2022/05/10 10:13:28;;;;;;;10.10;9.40;;;;;;;;;;5053343;28;20515;-76
2022/05/10 10:15:55;;;;;;;7.73;6.63;;;;;;;;;;5052992;28;20437;-76
2022/05/10 10:18:44;;;;;;;6.60;6.10;;;;;;;;;;5052934;28;20461;-74
2022/05/10 10:21:12;;;;;;;6.70;6.30;;;;;;;;;;5045060;28;20536;-75
2022/05/10 10:23:41;;;;;;;6.77;6.27;;;;;;;;;;5056418;28;20469;-75
2022/05/10 10:26:14;;;;;;;6.80;6.40;;;;;;;;;;5058218;28;20477;-75
2022/05/10 10:28:47;;;;;;;7.10;6.60;;;;;;;;;;5052577;28;20466;-74
2022/05/10 10:31:18;;;;;;;6.70;6.10;;;;;;;;;;5053281;28;20484;-75
2022/05/10 10:33:46;;;;;;;6.73;6.17;;;;;;;;;;5052598;28;20468;-74
2022/05/10 10:36:14;;;;;;;6.93;6.53;;;;;;;;;;5051776;28;20820;-75
2022/05/10 10:38:46;;;;;;;6.37;6.07;;;;;;;;;;5052066;28;20465;-75
2022/05/10 10:41:18;;;;;;;6.77;6.20;;;;;;;;;;5052282;28;20524;-75
2022/05/10 10:43:48;;;;;;;6.57;6.17;;;;;;;;;;5051116;28;21062;-75
2022/05/10 10:46:24;;;;;;;8.67;6.43;;;;;;;;;;5050938;28;20477;-75
2022/05/10 10:48:54;;;;;;;5.67;5.20;;;;;;;;;;5051925;28;20473;-75
2022/05/10 10:51:23;;;;;;;5.83;5.43;;;;;;;;;;5051677;28;20473;-74
2022/05/10 10:53:50;;;;;;;5.77;5.37;;;;;;;;;;5051405;28;20445;-75
2022/05/10 10:56:33;;;;;;;6.13;5.83;;;;;;;;;;5051135;28;20862;-75
2022/05/10 10:59:08;;;;;;;6.37;5.83;;;;;;;;;;5051687;28;20924;-75
2022/05/10 11:01:40;;;;;;;6.63;6.03;;;;;;;;;;5051610;28;20441;-75
2022/05/10 11:04:15;;;;;;;5.37;5.07;;;;;;;;;;5051148;28;20453;-75
2022/05/10 11:06:46;;;;;;;5.97;5.57;;;;;;;;;;5051165;28;20483;-74
2022/05/10 11:09:31;;;;;;;5.53;5.03;;;;;;;;;;5050667;28;20528;-74
2022/05/10 11:12:03;;;;;;;5.40;5.00;;;;;;;;;;5051044;28;20503;-74
2022/05/10 11:14:44;;;;;;;5.40;5.07;;;;;;;;;;5050464;28;20541;-75
2022/05/10 11:17:16;;;;;;;6.30;5.90;;;;;;;;;;5050633;28;21038;-75
2022/05/10 11:19:52;;;;;;;5.57;5.17;;;;;;;;;;5050887;28;20791;-75
2022/05/10 11:22:29;;;;;;;5.03;4.73;;;;;;;;;;5051613;28;20472;-75
2022/05/10 11:24:59;;;;;;;5.70;5.07;;;;;;;;;;5051756;28;20817;-75
2022/05/10 11:27:33;;;;;;;5.80;5.40;;;;;;;;;;5050888;28;20589;-75
2022/05/10 11:30:05;;;;;;;5.50;5.10;;;;;;;;;;5051207;28;20445;-75
2022/05/10 11:32:42;;;;;;;4.90;4.70;;;;;;;;;;5050911;28;20457;-75
2022/05/10 11:35:13;;;;;;;5.33;4.93;;;;;;;;;;5050940;28;20507;-75
2022/05/10 11:37:44;;;;;;;5.80;4.70;;;;;;;;;;5050280;28;20874;-74
2022/05/10 11:40:35;;;;;;;5.63;5.13;;;;;;;;;;5050475;28;20507;-76
2022/05/10 11:43:18;;;;;;;5.17;4.90;;;;;;;;;;5050574;28;20472;-75
2022/05/10 11:46:03;;;;;;;5.90;5.50;;;;;;;;;;5048462;28;20453;-75
2022/05/10 11:48:36;;;;;;;5.10;4.80;;;;;;;;;;5050910;28;20445;-75
2022/05/10 11:54:18;;;;;;;4.80;4.50;;;;;;;;;;5050198;28;20417;-75
2022/05/10 11:56:45;;;;;;;5.30;4.90;;;;;;;;;;5050148;28;20511;-76
2022/05/10 11:59:14;;;;;;;4.83;4.43;;;;;;;;;;5050074;28;20441;-74
2022/05/10 12:01:44;;;;;;;4.93;4.53;;;;;;;;;;5050455;28;20525;-75
2022/05/10 12:04:26;;;;;;;5.17;4.77;;;;;;;;;;5049999;28;20441;-74
2022/05/10 12:06:53;;;;;;;5.10;4.70;;;;;;;;;;5049201;28;20889;-75
2022/05/10 12:09:35;;;;;;;5.30;4.80;;;;;;;;;;5050374;28;20464;-76
2022/05/10 12:12:02;;;;;;;5.30;4.70;;;;;;;;;;5049292;28;20445;-77
2022/05/10 12:23:19;;;;;;;4.97;4.67;;;;;;;;;;5049609;28;20547;-75
2022/05/10 12:25:59;;;;;;;5.03;4.73;;;;;;;;;;5050479;28;20870;-74
2022/05/10 12:28:36;;;;;;;4.70;4.40;;;;;;;;;;5049702;28;20469;-74
2022/05/10 12:31:03;;;;;;;4.60;4.30;;;;;;;;;;5051342;28;20595;-74
2022/05/10 12:33:36;;;;;;;4.80;4.50;;;;;;;;;;5054275;28;20453;-76
2022/05/10 12:36:07;;;;;;;5.03;4.73;;;;;;;;;;5050502;28;20948;-75
2022/05/10 12:38:43;;;;;;;4.60;4.33;;;;;;;;;;5050183;28;21007;-75
2022/05/10 12:41:15;;;;;;;5.47;5.00;;;;;;;;;;5049946;28;20472;-75
2022/05/10 12:43:58;;;;;;;4.90;4.60;;;;;;;;;;5049749;28;20555;-74
2022/05/10 12:46:29;;;;;;;4.67;4.40;;;;;;;;;;5049814;28;20554;-75
2022/05/10 12:49:17;;;;;;;5.10;4.70;;;;;;;;;;5049496;28;20453;-76
2022/05/10 12:51:46;;;;;;;4.67;4.27;;;;;;;;;;5050137;28;20442;-75
2022/05/10 12:54:15;;;;;;;5.20;4.80;;;;;;;;;;5049472;28;20582;-76
2022/05/10 12:56:56;;;;;;;5.00;4.63;;;;;;;;;;5049545;28;20465;-75
2022/05/10 12:59:26;;;;;;;4.57;4.27;;;;;;;;;;5049595;28;20499;-75
2022/05/10 13:01:55;;;;;;;5.37;4.90;;;;;;;;;;5049990;28;20454;-74
2022/05/10 13:04:25;;;;;;;4.63;4.33;;;;;;;;;;5052138;28;20480;-73
2022/05/10 13:06:59;;;;;;;4.50;4.20;;;;;;;;;;5051407;28;20481;-76
2022/05/10 13:09:50;;;;;;;4.77;4.33;;;;;;;;;;5050473;28;20438;-75
2022/05/10 13:12:19;;;;;;;4.50;4.20;;;;;;;;;;5049622;28;20456;-75
2022/05/10 13:14:48;;;;;;;5.00;4.70;;;;;;;;;;5049500;28;20520;-75
2022/05/10 13:17:20;;;;;;;4.80;4.60;;;;;;;;;;5049438;28;20457;-74
2022/05/10 13:19:50;;;;;;;5.03;4.73;;;;;;;;;;5049323;28;20566;-74
2022/05/10 13:22:19;;;;;;;4.47;4.17;;;;;;;;;;5049784;28;20549;-76
2022/05/10 13:24:47;;;;;;;4.83;4.53;;;;;;;;;;5048911;28;20854;-74
2022/05/10 13:27:26;;;;;;;4.40;4.10;;;;;;;;;;5049144;28;20488;-76
2022/05/10 13:29:54;;;;;;;6.73;4.77;;;;;;;;;;5049558;28;20944;-74
2022/05/10 13:32:33;;;;;;;5.33;4.93;;;;;;;;;;5051801;28;20449;-75
2022/05/10 13:35:04;;;;;;;6.90;5.07;;;;;;;;;;5052753;28;20913;-75
2022/05/10 13:37:33;;;;;;;4.73;4.43;;;;;;;;;;5052663;28;20526;-75
2022/05/10 13:40:02;;;;;;;5.70;5.30;;;;;;;;;;5052761;28;21014;-75
2022/05/10 13:42:30;;;;;;;5.57;5.27;;;;;;;;;;5052692;28;20485;-76
2022/05/10 13:44:57;;;;;;;5.93;5.43;;;;;;;;;;5052639;28;20438;-75
2022/05/10 13:47:29;;;;;;;6.03;5.53;;;;;;;;;;5052725;28;20530;-74
2022/05/10 13:49:57;;;;;;;5.83;5.33;;;;;;;;;;5053169;28;20815;-75
2022/05/10 13:52:29;;;;;;;5.83;5.40;;;;;;;;;;5053322;28;20473;-74
2022/05/10 13:54:57;;;;;;;5.50;5.10;;;;;;;;;;5052826;28;20894;-76
2022/05/10 13:57:26;;;;;;;5.07;4.77;;;;;;;;;;5052542;28;20827;-75
2022/05/10 13:59:53;;;;;;;5.97;5.40;;;;;;;;;;5052460;28;20499;-75
2022/05/10 14:02:22;;;;;;;6.10;5.80;;;;;;;;;;5052809;28;20519;-75
2022/05/10 14:04:50;;;;;;;5.20;4.90;;;;;;;;;;5052324;28;20452;-76
2022/05/10 14:07:19;;;;;;;6.17;5.67;;;;;;;;;;5052428;28;20996;-74
2022/05/10 14:09:49;;;;;;;6.30;5.80;;;;;;;;;;5052370;28;20813;-76
2022/05/10 14:12:20;;;;;;;5.87;5.43;;;;;;;;;;5052144;28;20473;-73
2022/05/10 14:14:48;;;;;;;5.50;5.10;;;;;;;;;;5052249;28;21066;-73
2022/05/10 14:17:16;;;;;;;5.53;5.13;;;;;;;;;;5052385;28;21096;-74
2022/05/10 14:19:45;;;;;;;6.30;5.90;;;;;;;;;;5052594;28;20968;-74
2022/05/10 14:22:15;;;;;;;5.50;5.20;;;;;;;;;;5052830;28;20449;-74
2022/05/10 14:24:43;;;;;;;6.10;5.70;;;;;;;;;;5052358;28;20445;-73
2022/05/10 14:27:18;;;;;;;5.30;4.90;;;;;;;;;;5052506;28;20489;-73
2022/05/10 14:29:47;;;;;;;5.90;5.40;;;;;;;;;;5053017;28;20445;-75
2022/05/10 14:32:15;;;;;;;6.20;5.67;;;;;;;;;;5052773;28;20503;-74
2022/05/10 14:34:48;;;;;;;6.37;5.77;;;;;;;;;;5052665;28;20441;-74
2022/05/10 14:37:24;;;;;;;6.50;5.90;;;;;;;;;;5052633;28;20838;-75
2022/05/10 14:39:52;;;;;;;5.80;5.40;;;;;;;;;;5052388;28;20453;-74
2022/05/10 14:42:25;;;;;;;7.83;5.80;;;;;;;;;;5051781;28;20442;-74
2022/05/10 14:44:53;;;;;;;6.80;6.23;;;;;;;;;;5051529;28;20449;-74
2022/05/10 14:47:21;;;;;;;5.60;5.10;;;;;;;;;;5051499;28;20568;-75
2022/05/10 14:49:50;;;;;;;5.53;5.23;;;;;;;;;;5051238;28;20445;-75
2022/05/10 14:52:30;;;;;;;5.77;5.37;;;;;;;;;;5051828;28;20552;-76
2022/05/10 14:54:58;;;;;;;5.80;5.03;;;;;;;;;;5052255;28;20534;-74
2022/05/10 14:57:30;;;;;;;6.03;5.47;;;;;;;;;;5051610;28;20553;-74
2022/05/10 14:59:59;;;;;;;6.00;5.70;;;;;;;;;;5051435;28;20461;-74
2022/05/10 15:02:29;;;;;;;6.47;5.87;;;;;;;;;;5051347;28;20445;-74